Time;durP1;ratioP1;P1;durP2;ratioP2;P2;SDS_P1;SDS_P2;PMS_P1;PMS_P2;Temp;Humidity;BMP_temperature;BMP_pressure;BME280_temperature;BME280_humidity;BME280_pressure;Samples;Min_cycle;Max_cycle;Signal;HPM_P1;HPM_P2
2021/11/10 00:00:00;;;;;;;;;;;;;;;16.14;nan;101097.75;5036907;28;19909;-35
2021/11/10 00:02:26;;;;;;;;;;;;;;;16.13;nan;101093.34;5018125;28;20304;-35
2021/11/10 00:04:51;;;;;;;;;;;;;;;16.13;nan;101077.25;5013492;28;19940;-35
2021/11/10 00:07:17;;;;;;;;;;;;;;;16.13;nan;101072.75;5014949;28;19992;-35
2021/11/10 00:09:42;;;;;;;;;;;;;;;16.14;nan;101068.25;5026005;28;20289;-35
2021/11/10 00:12:07;;;;;;;;;;;;;;;16.13;nan;101067.38;5022459;28;19966;-35
2021/11/10 00:14:33;;;;;;;;;;;;;;;16.15;nan;101059.28;5034602;28;20331;-37
2021/11/10 00:16:58;;;;;;;;;;;;;;;16.14;nan;101054.84;5033358;28;19963;-35
2021/11/10 00:19:24;;;;;;;;;;;;;;;16.14;nan;101054.84;5033200;28;20385;-36
2021/11/10 00:21:50;;;;;;;;;;;;;;;16.14;nan;101049.47;5018370;28;20393;-35
2021/11/10 00:24:15;;;;;;;;;;;;;;;16.14;nan;101041.44;5014651;28;20004;-35
2021/11/10 00:26:41;;;;;;;;;;;;;;;16.14;nan;101039.63;5014667;28;19909;-35
2021/11/10 00:29:06;;;;;;;;;;;;;;;16.14;nan;101028.91;5014663;28;19996;-35
2021/11/10 00:31:31;;;;;;;;;;;;;;;16.15;nan;101033.31;5016858;28;19920;-35
2021/11/10 00:33:57;;;;;;;;;;;;;;;16.15;nan;101035.13;5033772;28;19909;-36
2021/11/10 00:36:22;;;;;;;;;;;;;;;16.14;nan;101020.88;5034390;28;20008;-36
2021/11/10 00:38:48;;;;;;;;;;;;;;;16.15;nan;101017.22;5034217;28;19909;-35
2021/11/10 00:41:14;;;;;;;;;;;;;;;16.14;nan;101014.59;5033548;28;19917;-35
2021/11/10 00:43:39;;;;;;;;;;;;;;;16.15;nan;100994.91;5033644;28;19948;-35
2021/11/10 00:46:04;;;;;;;;;;;;;;;16.15;nan;100994.91;5036223;28;19913;-36
2021/11/10 00:48:30;;;;;;;;;;;;;;;16.15;nan;100990.41;5034959;28;19909;-35
2021/11/10 00:50:56;;;;;;;;;;;;;;;16.14;nan;100988.69;5033947;28;20003;-35
2021/11/10 00:53:21;;;;;;;;;;;;;;;16.15;nan;100985.03;5021745;28;19920;-36
2021/11/10 00:55:46;;;;;;;;;;;;;;;16.16;nan;100985.91;5026204;28;19914;-35
2021/11/10 00:58:12;;;;;;;;;;;;;;;16.16;nan;100983.22;5014122;28;19996;-35
2021/11/10 01:00:37;;;;;;;;;;;;;;;16.17;nan;100982.25;5013733;28;19910;-35
2021/11/10 01:03:04;;;;;;;;;;;;;;;16.16;nan;100985.91;5023080;28;20267;-36
2021/11/10 01:05:29;;;;;;;;;;;;;;;16.16;nan;100988.56;5035863;28;19921;-35
2021/11/10 01:07:55;;;;;;;;;;;;;;;16.17;nan;100990.28;5052071;28;19918;-35
2021/11/10 01:10:21;;;;;;;;;;;;;;;16.16;nan;100994.81;5053453;28;19950;-35
2021/11/10 01:12:47;;;;;;;;;;;;;;;16.17;nan;100990.28;5047508;28;19913;-36
2021/11/10 01:15:12;;;;;;;;;;;;;;;16.16;nan;100992.13;5047826;28;19912;-35
2021/11/10 01:17:38;;;;;;;;;;;;;;;16.16;nan;100993.94;5053377;28;19912;-35
2021/11/10 01:20:07;;;;;;;;;;;;;;;16.17;nan;101003.72;5053220;28;20284;-35
2021/11/10 01:22:32;;;;;;;;;;;;;;;16.17;nan;100999.19;5051042;28;19908;-35
2021/11/10 01:24:58;;;;;;;;;;;;;;;16.16;nan;100997.47;5033118;28;19912;-35
2021/11/10 01:27:23;;;;;;;;;;;;;;;16.16;nan;100994.81;5033301;28;19916;-35
2021/11/10 01:29:50;;;;;;;;;;;;;;;16.17;nan;101001.88;5033103;28;19920;-35
2021/11/10 01:32:15;;;;;;;;;;;;;;;16.18;nan;100994.69;5033195;28;19909;-36
2021/11/10 01:34:41;;;;;;;;;;;;;;;16.17;nan;100987.63;5047807;28;19915;-35
2021/11/10 01:37:06;;;;;;;;;;;;;;;16.18;nan;100994.69;5035122;28;19908;-35
2021/11/10 01:39:32;;;;;;;;;;;;;;;16.17;nan;101001.88;5052792;28;19955;-35
2021/11/10 01:42:02;;;;;;;;;;;;;;;16.18;nan;100994.69;5036589;28;19952;-36
2021/11/10 01:44:28;;;;;;;;;;;;;;;16.18;nan;101000.06;5033142;28;19963;-35
2021/11/10 01:46:56;;;;;;;;;;;;;;;16.18;nan;101005.44;5032947;28;19913;-35
2021/11/10 01:49:21;;;;;;;;;;;;;;;16.18;nan;101006.31;5045924;28;20011;-35
2021/11/10 01:51:51;;;;;;;;;;;;;;;16.19;nan;101017.91;5033847;28;19947;-35
2021/11/10 01:54:18;;;;;;;;;;;;;;;16.18;nan;101010.78;5032780;28;19916;-35
2021/11/10 01:56:43;;;;;;;;;;;;;;;16.18;nan;101017.03;5035422;28;19909;-35
2021/11/10 01:59:09;;;;;;;;;;;;;;;16.19;nan;101009.84;5037330;28;19938;-35
2021/11/10 02:01:42;;;;;;;;;;;;;;;16.19;nan;101015.22;5035125;28;19913;-36
2021/11/10 02:04:08;;;;;;;;;;;;;;;16.17;nan;101012.63;5033273;28;19924;-33
2021/11/10 02:06:34;;;;;;;;;;;;;;;16.18;nan;101017.03;5032443;28;19909;-33
2021/11/10 02:08:59;;;;;;;;;;;;;;;16.19;nan;101023.28;5014921;28;20504;-33
2021/11/10 02:11:25;;;;;;;;;;;;;;;16.19;nan;101020.59;5033508;28;19913;-33
2021/11/10 02:13:51;;;;;;;;;;;;;;;16.18;nan;101013.47;5048517;28;19935;-33
2021/11/10 02:16:16;;;;;;;;;;;;;;;16.18;nan;101011.69;5047496;28;19917;-33
2021/11/10 02:18:41;;;;;;;;;;;;;;;16.17;nan;101004.56;5032364;28;20292;-34
2021/11/10 02:21:12;;;;;;;;;;;;;;;16.18;nan;101000.06;5032314;28;19932;-33
2021/11/10 02:23:37;;;;;;;;;;;;;;;16.18;nan;100997.38;5047636;28;19923;-33
2021/11/10 02:26:05;;;;;;;;;;;;;;;16.18;nan;100994.69;5034409;28;19912;-33
2021/11/10 02:28:30;;;;;;;;;;;;;;;16.19;nan;100988.41;5039219;28;19932;-33
2021/11/10 02:30:56;;;;;;;;;;;;;;;16.19;nan;100996.44;5032102;28;19913;-33
2021/11/10 02:33:28;;;;;;;;;;;;;;;16.18;nan;101000.06;5033188;28;19909;-33
2021/11/10 02:36:01;;;;;;;;;;;;;;;16.19;nan;100996.44;5031897;28;20003;-33
2021/11/10 02:38:26;;;;;;;;;;;;;;;16.19;nan;100993.75;5031946;28;19915;-33
2021/11/10 02:40:53;;;;;;;;;;;;;;;16.19;nan;100985.72;5031991;28;19912;-33
2021/11/10 02:43:18;;;;;;;;;;;;;;;16.18;nan;100995.59;5032991;28;20328;-33
2021/11/10 02:45:44;;;;;;;;;;;;;;;16.18;nan;100995.59;5031989;28;19978;-34
2021/11/10 02:48:09;;;;;;;;;;;;;;;16.19;nan;100996.44;5039420;28;19966;-33
2021/11/10 02:50:35;;;;;;;;;;;;;;;16.20;nan;100992.81;5036465;28;19975;-33
2021/11/10 02:53:00;;;;;;;;;;;;;;;16.20;nan;100995.47;5031829;28;19916;-33
2021/11/10 02:55:26;;;;;;;;;;;;;;;16.19;nan;101002.66;5033372;28;19913;-33
2021/11/10 02:57:53;;;;;;;;;;;;;;;16.19;nan;101008.03;5034493;28;20388;-34
2021/11/10 03:00:18;;;;;;;;;;;;;;;16.18;nan;101013.47;5028800;28;19912;-33
2021/11/10 03:02:44;;;;;;;;;;;;;;;16.18;nan;101009.00;5035819;28;20372;-33
2021/11/10 03:05:09;;;;;;;;;;;;;;;16.19;nan;101007.19;5030083;28;19921;-33
2021/11/10 03:07:35;;;;;;;;;;;;;;;16.19;nan;101004.50;5035765;28;20417;-33
2021/11/10 03:10:00;;;;;;;;;;;;;;;16.19;nan;101009.84;5034483;28;19909;-33
2021/11/10 03:12:26;;;;;;;;;;;;;;;16.17;nan;101001.88;5034340;28;19916;-33
2021/11/10 03:14:51;;;;;;;;;;;;;;;16.18;nan;100997.38;5037441;28;19909;-33
2021/11/10 03:17:18;;;;;;;;;;;;;;;16.18;nan;100997.38;5019629;28;20382;-33
2021/11/10 03:19:44;;;;;;;;;;;;;;;16.17;nan;100996.53;5015094;28;19909;-33
2021/11/10 03:22:12;;;;;;;;;;;;;;;16.16;nan;100988.56;5015613;28;19961;-33
2021/11/10 03:24:37;;;;;;;;;;;;;;;16.16;nan;100988.56;5015714;28;19914;-33
2021/11/10 03:27:03;;;;;;;;;;;;;;;16.15;nan;100989.53;5015712;28;19909;-33
2021/11/10 03:29:29;;;;;;;;;;;;;;;16.15;nan;100986.84;5016007;28;20332;-33
2021/11/10 03:31:55;;;;;;;;;;;;;;;16.14;nan;100977.06;5015577;28;19962;-33
2021/11/10 03:34:20;;;;;;;;;;;;;;;16.13;nan;100964.63;5015510;28;19909;-33
2021/11/10 03:36:46;;;;;;;;;;;;;;;16.14;nan;100955.59;5015412;28;19920;-33
2021/11/10 03:39:13;;;;;;;;;;;;;;;16.14;nan;100959.19;5015605;28;19916;-33
2021/11/10 03:41:38;;;;;;;;;;;;;;;16.13;nan;100970.84;5015347;28;19940;-33
2021/11/10 03:44:04;;;;;;;;;;;;;;;16.14;nan;100958.28;5015343;28;19995;-33
2021/11/10 03:46:29;;;;;;;;;;;;;;;16.12;nan;100947.66;5015565;28;19917;-34
2021/11/10 03:48:55;;;;;;;;;;;;;;;16.13;nan;100943.16;5015320;28;19956;-33
2021/11/10 03:51:20;;;;;;;;;;;;;;;16.12;nan;100942.31;5015102;28;20262;-33
2021/11/10 03:53:46;;;;;;;;;;;;;;;16.12;nan;100936.06;5029944;28;19909;-33
2021/11/10 03:56:11;;;;;;;;;;;;;;;16.12;nan;100941.44;5034866;28;19909;-33
2021/11/10 03:58:37;;;;;;;;;;;;;;;16.13;nan;100948.53;5034932;28;19913;-33
2021/11/10 04:01:03;;;;;;;;;;;;;;;16.13;nan;100943.16;5028603;28;19972;-33
2021/11/10 04:03:28;;;;;;;;;;;;;;;16.12;nan;100936.94;5033437;28;19917;-33
2021/11/10 04:05:54;;;;;;;;;;;;;;;16.11;nan;100945.94;5055207;28;19985;-33
2021/11/10 04:08:20;;;;;;;;;;;;;;;16.12;nan;100946.81;5052616;28;19912;-33
2021/11/10 04:10:45;;;;;;;;;;;;;;;16.11;nan;100948.63;5035959;28;19912;-33
2021/11/10 04:13:10;;;;;;;;;;;;;;;16.11;nan;100951.31;5035970;28;20440;-33
2021/11/10 04:15:36;;;;;;;;;;;;;;;16.11;nan;100950.44;5038899;28;19920;-33
2021/11/10 04:18:02;;;;;;;;;;;;;;;16.11;nan;100951.31;5034477;28;19963;-33
2021/11/10 04:20:27;;;;;;;;;;;;;;;16.11;nan;100934.34;5039692;28;19944;-33
2021/11/10 04:22:53;;;;;;;;;;;;;;;16.09;nan;100927.25;5044149;28;20289;-33
2021/11/10 04:25:18;;;;;;;;;;;;;;;16.09;nan;100937.13;5035313;28;19979;-33
2021/11/10 04:27:44;;;;;;;;;;;;;;;16.09;nan;100932.59;5042288;28;19913;-34
2021/11/10 04:30:11;;;;;;;;;;;;;;;16.09;nan;100929.94;5039288;28;19913;-34
2021/11/10 04:32:37;;;;;;;;;;;;;;;16.09;nan;100943.34;5037746;28;20393;-32
2021/11/10 04:35:03;;;;;;;;;;;;;;;16.10;nan;100946.88;5034297;28;19909;-33
2021/11/10 04:37:29;;;;;;;;;;;;;;;16.09;nan;100931.75;5034407;28;19909;-33
2021/11/10 04:39:54;;;;;;;;;;;;;;;16.09;nan;100935.28;5034614;28;20255;-33
2021/11/10 04:42:19;;;;;;;;;;;;;;;16.08;nan;100941.63;5053170;28;19948;-33
2021/11/10 04:44:49;;;;;;;;;;;;;;;16.09;nan;100937.97;5052227;28;19916;-33
2021/11/10 04:47:15;;;;;;;;;;;;;;;16.08;nan;100938.94;5054038;28;19979;-33
2021/11/10 04:49:40;;;;;;;;;;;;;;;16.08;nan;100930.88;5053988;28;19996;-33
2021/11/10 04:52:06;;;;;;;;;;;;;;;16.08;nan;100941.63;5053879;28;19912;-33
2021/11/10 04:54:31;;;;;;;;;;;;;;;16.07;nan;100945.25;5052046;28;19919;-33
2021/11/10 04:57:01;;;;;;;;;;;;;;;16.08;nan;100952.34;5053745;28;19909;-33
2021/11/10 04:59:26;;;;;;;;;;;;;;;16.08;nan;100951.47;5053655;28;19916;-33
2021/11/10 05:04:29;;;;;;;;;;;;;;;16.07;nan;100956.00;5034602;28;19924;-33
2021/11/10 05:06:54;;;;;;;;;;;;;;;16.07;nan;100965.84;5015927;28;19912;-33
2021/11/10 05:09:19;;;;;;;;;;;;;;;16.07;nan;100957.81;5047673;28;19920;-33
2021/11/10 05:11:45;;;;;;;;;;;;;;;16.07;nan;100958.66;5053606;28;19935;-33
2021/11/10 05:14:10;;;;;;;;;;;;;;;16.07;nan;100947.09;5053233;28;19908;-33
2021/11/10 05:16:36;;;;;;;;;;;;;;;16.07;nan;100950.63;5033867;28;20324;-33
2021/11/10 05:19:01;;;;;;;;;;;;;;;16.06;nan;100956.06;5053270;28;19920;-33
2021/11/10 05:21:27;;;;;;;;;;;;;;;16.06;nan;100959.63;5053267;28;19912;-33
2021/11/10 05:23:52;;;;;;;;;;;;;;;16.07;nan;100960.50;5034526;28;20326;-33
2021/11/10 05:26:17;;;;;;;;;;;;;;;16.06;nan;100961.41;5034569;28;19920;-33
2021/11/10 05:28:43;;;;;;;;;;;;;;;16.07;nan;100964.03;5033201;28;19909;-33
2021/11/10 05:31:08;;;;;;;;;;;;;;;16.07;nan;100965.84;5033312;28;19909;-33
2021/11/10 05:33:33;;;;;;;;;;;;;;;16.06;nan;100973.03;5033015;28;19944;-33
2021/11/10 05:35:59;;;;;;;;;;;;;;;16.06;nan;100975.72;5034332;28;20579;-33
2021/11/10 05:38:24;;;;;;;;;;;;;;;16.06;nan;100975.72;5015302;28;20000;-33
2021/11/10 05:40:50;;;;;;;;;;;;;;;16.05;nan;100968.59;5033083;28;19913;-33
2021/11/10 05:43:16;;;;;;;;;;;;;;;16.06;nan;100958.75;5033106;28;19921;-33
2021/11/10 05:45:42;;;;;;;;;;;;;;;16.06;nan;100961.41;5054942;28;19936;-33
2021/11/10 05:48:08;;;;;;;;;;;;;;;16.06;nan;100958.75;5039264;28;19937;-34
2021/11/10 05:50:33;;;;;;;;;;;;;;;16.04;nan;100953.47;5032921;28;19936;-33
2021/11/10 05:52:58;;;;;;;;;;;;;;;16.04;nan;100942.75;5043814;28;19912;-33
2021/11/10 05:55:25;;;;;;;;;;;;;;;16.05;nan;100946.28;5052660;28;19915;-33
2021/11/10 05:57:51;;;;;;;;;;;;;;;16.05;nan;100955.19;5051167;28;19958;-33
2021/11/10 06:00:17;;;;;;;;;;;;;;;16.05;nan;100957.03;5052821;28;19978;-33
2021/11/10 06:02:43;;;;;;;;;;;;;;;16.05;nan;100965.94;5052633;28;20382;-33
2021/11/10 06:05:09;;;;;;;;;;;;;;;16.04;nan;100942.75;5039046;28;19916;-33
2021/11/10 06:07:35;;;;;;;;;;;;;;;16.04;nan;100934.72;5033650;28;19912;-33
2021/11/10 06:10:01;;;;;;;;;;;;;;;16.03;nan;100938.34;5050219;28;19919;-34
2021/11/10 06:12:27;;;;;;;;;;;;;;;16.04;nan;100934.72;5052473;28;19954;-33
2021/11/10 06:14:52;;;;;;;;;;;;;;;16.02;nan;100925.88;5052140;28;19913;-33
2021/11/10 06:17:17;;;;;;;;;;;;;;;16.02;nan;100925.88;5052298;28;19923;-33
2021/11/10 06:19:43;;;;;;;;;;;;;;;16.02;nan;100920.50;5050513;28;19913;-33
2021/11/10 06:22:08;;;;;;;;;;;;;;;16.03;nan;100916.03;5052103;28;20423;-33
2021/11/10 06:24:34;;;;;;;;;;;;;;;16.02;nan;100909.78;5052024;28;20528;-33
2021/11/10 06:26:59;;;;;;;;;;;;;;;16.03;nan;100910.69;5052129;28;19913;-33
2021/11/10 06:29:24;;;;;;;;;;;;;;;16.02;nan;100909.78;5048669;28;19958;-33
2021/11/10 06:31:50;;;;;;;;;;;;;;;16.02;nan;100909.78;5031715;28;20332;-33
2021/11/10 06:34:16;;;;;;;;;;;;;;;16.02;nan;100904.44;5031974;28;20354;-33
2021/11/10 06:36:41;;;;;;;;;;;;;;;16.02;nan;100906.25;5031981;28;19909;-33
2021/11/10 06:39:07;;;;;;;;;;;;;;;16.02;nan;100917.84;5033505;28;20011;-33
2021/11/10 06:41:32;;;;;;;;;;;;;;;16.01;nan;100913.44;5032315;28;19912;-33
2021/11/10 06:43:58;;;;;;;;;;;;;;;16.02;nan;100909.78;5041784;28;19921;-33
2021/11/10 06:46:23;;;;;;;;;;;;;;;16.02;nan;100907.09;5051511;28;20373;-33
2021/11/10 06:48:48;;;;;;;;;;;;;;;16.02;nan;100900.88;5047432;28;19958;-33
2021/11/10 06:51:14;;;;;;;;;;;;;;;16.01;nan;100899.16;5038954;28;19912;-33
2021/11/10 06:53:40;;;;;;;;;;;;;;;16.01;nan;100900.03;5031772;28;19913;-33
2021/11/10 06:56:05;;;;;;;;;;;;;;;16.01;nan;100902.72;5032827;28;19924;-33
2021/11/10 06:58:31;;;;;;;;;;;;;;;16.00;nan;100905.50;5032968;28;19908;-33
2021/11/10 07:00:56;;;;;;;;;;;;;;;16.01;nan;100902.72;5031720;28;19951;-33
2021/11/10 07:03:22;;;;;;;;;;;;;;;16.01;nan;100902.72;5031499;28;20469;-33
2021/11/10 07:05:47;;;;;;;;;;;;;;;16.01;nan;100905.38;5023666;28;19913;-33
2021/11/10 07:08:12;;;;;;;;;;;;;;;16.02;nan;100908.94;5051677;28;19932;-33
2021/11/10 07:10:38;;;;;;;;;;;;;;;16.02;nan;100909.78;5049877;28;20019;-33
2021/11/10 07:13:03;;;;;;;;;;;;;;;16.02;nan;100915.16;5051694;28;19909;-33
2021/11/10 07:15:28;;;;;;;;;;;;;;;16.01;nan;100916.13;5045853;28;19999;-33
2021/11/10 07:17:54;;;;;;;;;;;;;;;16.02;nan;100916.97;5045115;28;19912;-33
2021/11/10 07:20:20;;;;;;;;;;;;;;;16.01;nan;100915.25;5048044;28;19912;-33
2021/11/10 07:22:45;;;;;;;;;;;;;;;16.01;nan;100929.53;5050461;28;20393;-33
2021/11/10 07:25:11;;;;;;;;;;;;;;;16.01;nan;100929.53;5050552;28;19960;-33
2021/11/10 07:27:37;;;;;;;;;;;;;;;16.01;nan;100934.88;5028275;28;19947;-33
2021/11/10 07:30:04;;;;;;;;;;;;;;;16.02;nan;100936.59;5050383;28;20387;-33
2021/11/10 07:32:29;;;;;;;;;;;;;;;16.02;nan;100943.78;5034175;28;19913;-33
2021/11/10 07:34:54;;;;;;;;;;;;;;;16.02;nan;100958.06;5031783;28;19913;-33
2021/11/10 07:37:20;;;;;;;;;;;;;;;16.02;nan;100951.84;5036232;28;19916;-33
2021/11/10 07:39:46;;;;;;;;;;;;;;;16.01;nan;100944.75;5051399;28;19956;-33
2021/11/10 07:42:12;;;;;;;;;;;;;;;16.00;nan;100949.25;5049548;28;20285;-33
2021/11/10 07:44:39;;;;;;;;;;;;;;;16.01;nan;100944.75;5051836;28;19984;-33
2021/11/10 07:47:11;;;;;;;;;;;;;;;16.01;nan;100939.38;5051938;28;20365;-33
2021/11/10 07:49:37;;;;;;;;;;;;;;;16.00;nan;100943.91;5035107;28;19909;-33
2021/11/10 07:52:02;;;;;;;;;;;;;;;16.01;nan;100950.13;5049240;28;19920;-33
2021/11/10 07:54:28;;;;;;;;;;;;;;;16.01;nan;100945.63;5044958;28;19913;-33
2021/11/10 07:56:53;;;;;;;;;;;;;;;16.01;nan;100944.75;5050297;28;19968;-33
2021/11/10 07:59:19;;;;;;;;;;;;;;;16.02;nan;100946.47;5035642;28;20289;-33
2021/11/10 08:01:44;;;;;;;;;;;;;;;16.00;nan;100948.41;5030895;28;19916;-33
2021/11/10 08:04:09;;;;;;;;;;;;;;;16.00;nan;100949.25;5043808;28;19920;-33
2021/11/10 08:06:35;;;;;;;;;;;;;;;16.00;nan;100948.41;5039818;28;19924;-33
2021/11/10 08:09:01;;;;;;;;;;;;;;;16.00;nan;100945.72;5035077;28;20423;-33
2021/11/10 08:11:26;;;;;;;;;;;;;;;15.99;nan;100952.03;5033687;28;20339;-33
2021/11/10 08:13:51;;;;;;;;;;;;;;;15.99;nan;100947.53;5034339;28;19909;-33
2021/11/10 08:16:17;;;;;;;;;;;;;;;15.97;nan;100937.84;5034202;28;20393;-33
2021/11/10 08:18:42;;;;;;;;;;;;;;;15.98;nan;100943.09;5034287;28;19909;-33
2021/11/10 08:21:09;;;;;;;;;;;;;;;15.96;nan;100917.34;5034264;28;19908;-33
2021/11/10 08:23:35;;;;;;;;;;;;;;;15.97;nan;100938.72;5046360;28;20305;-33
2021/11/10 08:26:00;;;;;;;;;;;;;;;15.98;nan;100942.25;5053657;28;19936;-33
2021/11/10 08:28:26;;;;;;;;;;;;;;;15.96;nan;100947.72;5052916;28;19916;-33
2021/11/10 08:30:52;;;;;;;;;;;;;;;15.96;nan;100942.34;5051024;28;19908;-32
2021/11/10 08:33:18;;;;;;;;;;;;;;;15.96;nan;100925.41;5043150;28;20003;-33
2021/11/10 08:35:44;;;;;;;;;;;;;;;15.96;nan;100933.44;5042538;28;20423;-33
2021/11/10 08:38:10;;;;;;;;;;;;;;;15.95;nan;100929.91;5044569;28;19979;-33
2021/11/10 08:40:36;;;;;;;;;;;;;;;15.97;nan;100937.84;5048436;28;19912;-33
2021/11/10 08:43:01;;;;;;;;;;;;;;;15.95;nan;100927.22;5047345;28;19909;-33
2021/11/10 08:45:31;;;;;;;;;;;;;;;15.95;nan;100924.53;5045264;28;19919;-33
2021/11/10 08:47:57;;;;;;;;;;;;;;;15.95;nan;100918.28;5043299;28;19912;-33
2021/11/10 08:50:26;;;;;;;;;;;;;;;15.95;nan;100921.88;5042478;28;20332;-33
2021/11/10 08:52:52;;;;;;;;;;;;;;;15.93;nan;100913.03;5042293;28;19954;-33
2021/11/10 08:55:17;;;;;;;;;;;;;;;15.93;nan;100909.50;5026083;28;19913;-33
2021/11/10 08:57:43;;;;;;;;;;;;;;;15.93;nan;100914.84;5024330;28;19909;-33
2021/11/10 09:00:12;;;;;;;;;;;;;;;15.94;nan;100905.84;5032931;28;19915;-33
2021/11/10 09:02:37;;;;;;;;;;;;;;;15.94;nan;100905.84;5045724;28;19940;-33
2021/11/10 09:05:05;;;;;;;;;;;;;;;15.91;nan;100901.56;5050259;28;19948;-33
2021/11/10 09:07:31;;;;;;;;;;;;;;;15.92;nan;100891.69;5047767;28;19923;-33
2021/11/10 09:09:56;;;;;;;;;;;;;;;15.92;nan;100887.19;5053511;28;19908;-33
2021/11/10 09:12:22;;;;;;;;;;;;;;;15.93;nan;100890.72;5053652;28;20369;-32
2021/11/10 09:14:47;;;;;;;;;;;;;;;15.94;nan;100884.41;5053422;28;19912;-33
2021/11/10 09:17:14;;;;;;;;;;;;;;;15.92;nan;100881.81;5040214;28;20004;-33
2021/11/10 09:19:39;;;;;;;;;;;;;;;15.93;nan;100874.63;5033506;28;20365;-32
2021/11/10 09:22:05;;;;;;;;;;;;;;;15.92;nan;100870.25;5033367;28;19956;-32
2021/11/10 09:24:31;;;;;;;;;;;;;;;15.93;nan;100862.09;5033159;28;19924;-32
2021/11/10 09:26:56;;;;;;;;;;;;;;;15.92;nan;100860.38;5019280;28;20304;-33
2021/11/10 09:29:21;;;;;;;;;;;;;;;15.93;nan;100861.22;5053118;28;19909;-33
2021/11/10 09:31:47;;;;;;;;;;;;;;;15.92;nan;100863.06;5053161;28;20360;-33
2021/11/10 09:34:14;;;;;;;;;;;;;;;15.93;nan;100854.06;5053639;28;19908;-33
2021/11/10 09:36:46;;;;;;;;;;;;;;;15.93;nan;100858.56;5051441;28;19919;-33
2021/11/10 09:39:12;;;;;;;;;;;;;;;15.92;nan;100857.69;5034896;28;19909;-33
2021/11/10 09:41:38;;;;;;;;;;;;;;;15.93;nan;100858.56;5047960;28;20352;-33
2021/11/10 09:44:04;;;;;;;;;;;;;;;15.93;nan;100859.41;5052808;28;19912;-33
2021/11/10 09:46:30;;;;;;;;;;;;;;;15.94;nan;100855.75;5051086;28;19912;-33
2021/11/10 09:48:58;;;;;;;;;;;;;;;15.94;nan;100866.50;5052013;28;19908;-33
2021/11/10 09:51:23;;;;;;;;;;;;;;;15.93;nan;100856.72;5036446;28;19974;-33
2021/11/10 09:53:49;;;;;;;;;;;;;;;15.94;nan;100861.13;5048673;28;20369;-33
2021/11/10 09:56:14;;;;;;;;;;;;;;;15.95;nan;100856.63;5050034;28;19920;-33
2021/11/10 09:58:41;;;;;;;;;;;;;;;15.95;nan;100854.84;5025956;28;19909;-32
2021/11/10 10:01:08;;;;;;;;;;;;;;;15.95;nan;100856.63;5042992;28;19955;-33
2021/11/10 10:03:35;;;;;;;;;;;;;;;15.96;nan;100850.34;5030763;28;20391;-33
2021/11/10 10:06:00;;;;;;;;;;;;;;;15.95;nan;100857.50;5025813;28;20014;-33
2021/11/10 10:08:26;;;;;;;;;;;;;;;15.97;nan;100868.13;5015552;28;19944;-33
2021/11/10 10:10:51;;;;;;;;;;;;;;;15.97;nan;100870.81;5026080;28;19933;-33
2021/11/10 10:13:18;;;;;;;;;;;;;;;15.97;nan;100868.13;5012587;28;19963;-33
2021/11/10 10:15:43;;;;;;;;;;;;;;;15.96;nan;100871.78;5012745;28;19909;-32
2021/11/10 10:18:14;;;;;;;;;;;;;;;15.97;nan;100874.34;5013963;28;19913;-32
2021/11/10 10:20:41;;;;;;;;;;;;;;;15.96;nan;100863.75;5012470;28;19945;-32
2021/11/10 10:23:08;;;;;;;;;;;;;;;15.95;nan;100860.19;5012385;28;20401;-32
2021/11/10 10:25:37;;;;;;;;;;;;;;;15.97;nan;100863.63;5012466;28;19909;-33
2021/11/10 10:28:02;;;;;;;;;;;;;;;15.97;nan;100857.41;5013471;28;20387;-33
2021/11/10 10:30:33;;;;;;;;;;;;;;;15.95;nan;100854.84;5008460;28;19916;-33
2021/11/10 10:33:05;;;;;;;;;;;;;;;15.97;nan;100846.69;5032108;28;19909;-33
2021/11/10 10:35:35;;;;;;;;;;;;;;;15.96;nan;100858.38;5032074;28;19917;-34
2021/11/10 10:38:01;;;;;;;;;;;;;;;15.96;nan;100850.34;5030660;28;19916;-33
2021/11/10 10:40:27;;;;;;;;;;;;;;;15.95;nan;100854.84;5014467;28;20004;-33
2021/11/10 10:42:54;;;;;;;;;;;;;;;15.97;nan;100852.06;5023220;28;19920;-33
2021/11/10 10:45:32;;;;;;;;;;;;;;;15.97;nan;100847.53;5032249;28;19909;-33
2021/11/10 10:48:00;;;;;;;;;;;;;;;15.97;nan;100842.19;5024676;28;19920;-33
2021/11/10 10:50:29;;;;;;;;;;;;;;;15.97;nan;100834.13;5013503;28;19909;-33
2021/11/10 10:52:55;;;;;;;;;;;;;;;15.97;nan;100842.19;5021420;28;19936;-33
2021/11/10 10:55:33;;;;;;;;;;;;;;;15.97;nan;100836.81;5011655;28;19918;-33
2021/11/10 10:57:59;;;;;;;;;;;;;;;15.98;nan;100835.00;5011927;28;19996;-33
2021/11/10 11:00:27;;;;;;;;;;;;;;;15.97;nan;100828.78;5004989;28;20087;-33
2021/11/10 11:02:52;;;;;;;;;;;;;;;15.98;nan;100821.59;5011909;28;19920;-33
2021/11/10 11:05:35;;;;;;;;;;;;;;;15.98;nan;100824.28;5034454;28;19917;-33
2021/11/10 11:08:21;;;;;;;;;;;;;;;15.98;nan;100821.59;5031698;28;19958;-33
2021/11/10 11:10:46;;;;;;;;;;;;;;;15.98;nan;100822.44;5017426;28;19948;-33
2021/11/10 11:13:17;;;;;;;;;;;;;;;15.98;nan;100805.50;5031668;28;19944;-33
2021/11/10 11:15:57;;;;;;;;;;;;;;;15.98;nan;100801.00;5047058;28;19919;-33
2021/11/10 11:18:22;;;;;;;;;;;;;;;15.98;nan;100795.63;5052359;28;19909;-33
2021/11/10 11:20:49;;;;;;;;;;;;;;;15.98;nan;100795.63;5028494;28;20304;-33
2021/11/10 11:23:16;;;;;;;;;;;;;;;15.98;nan;100789.41;5040484;28;19944;-33
2021/11/10 11:25:41;;;;;;;;;;;;;;;15.97;nan;100780.53;5053829;28;20015;-33
2021/11/10 11:28:10;;;;;;;;;;;;;;;15.98;nan;100774.19;5049938;28;19917;-33
2021/11/10 11:30:36;;;;;;;;;;;;;;;15.99;nan;100773.25;5037724;28;19916;-33
2021/11/10 11:33:03;;;;;;;;;;;;;;;15.99;nan;100770.56;5055181;28;19909;-33
2021/11/10 11:35:30;;;;;;;;;;;;;;;15.98;nan;100766.16;5037260;28;19916;-33
2021/11/10 11:37:56;;;;;;;;;;;;;;;15.98;nan;100763.47;5043240;28;19935;-33
2021/11/10 11:40:22;;;;;;;;;;;;;;;15.98;nan;100758.09;5036808;28;19927;-33
2021/11/10 11:42:48;;;;;;;;;;;;;;;16.00;nan;100747.31;5054692;28;19913;-33
2021/11/10 11:45:15;;;;;;;;;;;;;;;15.99;nan;100754.50;5052719;28;20404;-33
2021/11/10 11:47:50;;;;;;;;;;;;;;;16.00;nan;100749.97;5033474;28;19964;-33
2021/11/10 11:50:16;;;;;;;;;;;;;;;15.99;nan;100749.13;5041499;28;19980;-33
2021/11/10 11:52:44;;;;;;;;;;;;;;;15.99;nan;100754.50;5034916;28;19967;-33
2021/11/10 11:55:17;;;;;;;;;;;;;;;15.99;nan;100733.03;5035264;28;19909;-33
2021/11/10 11:57:45;;;;;;;;;;;;;;;15.99;nan;100735.72;5018305;28;19913;-33
2021/11/10 12:00:11;;;;;;;;;;;;;;;16.00;nan;100725.84;5024957;28;19913;-34
2021/11/10 12:02:39;;;;;;;;;;;;;;;16.00;nan;100723.16;5037519;28;19912;-33
2021/11/10 12:05:11;;;;;;;;;;;;;;;15.99;nan;100722.31;5052703;28;19969;-33
2021/11/10 12:07:40;;;;;;;;;;;;;;;16.00;nan;100705.25;5053983;28;19916;-34
2021/11/10 12:10:21;;;;;;;;;;;;;;;16.00;nan;100696.38;5032585;28;20030;-33
2021/11/10 12:12:47;;;;;;;;;;;;;;;15.99;nan;100692.81;5026724;28;19908;-34
2021/11/10 12:15:14;;;;;;;;;;;;;;;16.00;nan;100697.22;5047012;28;19913;-34
2021/11/10 12:17:58;;;;;;;;;;;;;;;16.00;nan;100688.31;5037575;28;19920;-34
2021/11/10 12:20:34;;;;;;;;;;;;;;;16.01;nan;100698.06;5035099;28;19995;-34
2021/11/10 12:22:59;;;;;;;;;;;;;;;15.98;nan;100688.41;5053536;28;19951;-34
2021/11/10 12:25:24;;;;;;;;;;;;;;;16.00;nan;100691.84;5051097;28;20370;-33
2021/11/10 12:27:50;;;;;;;;;;;;;;;15.99;nan;100679.41;5017523;28;19913;-33
2021/11/10 12:30:29;;;;;;;;;;;;;;;16.00;nan;100669.56;5033512;28;19920;-34
2021/11/10 12:32:55;;;;;;;;;;;;;;;15.99;nan;100652.59;5048784;28;19913;-33
2021/11/10 12:35:30;;;;;;;;;;;;;;;15.99;nan;100651.75;5039438;28;19975;-34
2021/11/10 12:37:57;;;;;;;;;;;;;;;15.99;nan;100655.28;5052205;28;19924;-33
2021/11/10 12:40:25;;;;;;;;;;;;;;;15.99;nan;100639.19;5033549;28;20259;-34
2021/11/10 12:42:51;;;;;;;;;;;;;;;16.00;nan;100640.91;5031832;28;19909;-33
2021/11/10 12:45:27;;;;;;;;;;;;;;;16.00;nan;100622.16;5034338;28;19920;-33
2021/11/10 12:47:54;;;;;;;;;;;;;;;16.00;nan;100613.25;5046164;28;20346;-33
2021/11/10 12:50:42;;;;;;;;;;;;;;;16.00;nan;100600.69;5038934;28;20050;-33
2021/11/10 12:53:12;;;;;;;;;;;;;;;15.99;nan;100601.66;5045820;28;19927;-33
2021/11/10 12:55:49;;;;;;;;;;;;;;;16.00;nan;100600.69;5039586;28;19993;-33